sensor_id;sensor_type;location;lat;lon;timestamp;P1;durP1;ratioP1;P2;durP2;ratioP2
84982;SDS011;75295;45.426;9.696;2024-01-10T00:01:45;15.13;;;9.32;;
84982;SDS011;75295;45.426;9.696;2024-01-10T00:04:55;18.23;;;10.75;;
84982;SDS011;75295;45.426;9.696;2024-01-10T00:07:29;17.88;;;10.35;;
84982;SDS011;75295;45.426;9.696;2024-01-10T00:10:21;19.83;;;10.90;;
84982;SDS011;75295;45.426;9.696;2024-01-10T00:13:18;19.17;;;11.77;;
84982;SDS011;75295;45.426;9.696;2024-01-10T00:16:35;17.02;;;10.00;;
84982;SDS011;75295;45.426;9.696;2024-01-10T00:19:40;16.42;;;9.38;;
84982;SDS011;75295;45.426;9.696;2024-01-10T00:22:28;17.25;;;9.25;;
84982;SDS011;75295;45.426;9.696;2024-01-10T00:25:32;18.38;;;9.30;;
84982;SDS011;75295;45.426;9.696;2024-01-10T00:28:44;17.70;;;9.80;;
84982;SDS011;75295;45.426;9.696;2024-01-10T00:31:41;15.13;;;8.98;;
84982;SDS011;75295;45.426;9.696;2024-01-10T00:34:58;13.95;;;9.00;;
84982;SDS011;75295;45.426;9.696;2024-01-10T00:37:53;15.65;;;9.55;;
84982;SDS011;75295;45.426;9.696;2024-01-10T00:40:58;14.52;;;8.45;;
84982;SDS011;75295;45.426;9.696;2024-01-10T00:43:55;16.30;;;8.40;;
84982;SDS011;75295;45.426;9.696;2024-01-10T00:46:48;13.95;;;8.00;;
84982;SDS011;75295;45.426;9.696;2024-01-10T00:49:47;14.70;;;7.97;;
84982;SDS011;75295;45.426;9.696;2024-01-10T00:52:50;14.55;;;7.93;;
84982;SDS011;75295;45.426;9.696;2024-01-10T00:55:54;14.80;;;8.50;;
84982;SDS011;75295;45.426;9.696;2024-01-10T00:58:52;15.52;;;8.13;;
84982;SDS011;75295;45.426;9.696;2024-01-10T01:01:47;15.30;;;7.75;;
84982;SDS011;75295;45.426;9.696;2024-01-10T01:05:04;13.52;;;7.38;;
84982;SDS011;75295;45.426;9.696;2024-01-10T01:08:07;13.20;;;7.65;;
84982;SDS011;75295;45.426;9.696;2024-01-10T01:13:30;13.13;;;7.97;;
84982;SDS011;75295;45.426;9.696;2024-01-10T01:16:11;13.00;;;7.35;;
84982;SDS011;75295;45.426;9.696;2024-01-10T01:18:53;12.45;;;7.55;;
84982;SDS011;75295;45.426;9.696;2024-01-10T01:21:45;11.93;;;7.40;;
84982;SDS011;75295;45.426;9.696;2024-01-10T01:24:25;11.88;;;7.47;;
84982;SDS011;75295;45.426;9.696;2024-01-10T01:27:16;14.88;;;9.02;;
84982;SDS011;75295;45.426;9.696;2024-01-10T01:29:53;14.88;;;7.43;;
84982;SDS011;75295;45.426;9.696;2024-01-10T01:32:55;14.05;;;8.70;;
84982;SDS011;75295;45.426;9.696;2024-01-10T01:35:51;14.10;;;8.10;;
84982;SDS011;75295;45.426;9.696;2024-01-10T01:38:25;12.48;;;7.90;;
84982;SDS011;75295;45.426;9.696;2024-01-10T01:41:26;13.70;;;7.70;;
84982;SDS011;75295;45.426;9.696;2024-01-10T01:43:55;12.95;;;8.48;;
84982;SDS011;75295;45.426;9.696;2024-01-10T01:46:34;13.98;;;7.72;;
84982;SDS011;75295;45.426;9.696;2024-01-10T01:49:09;12.52;;;7.70;;
84982;SDS011;75295;45.426;9.696;2024-01-10T01:51:37;14.15;;;7.75;;
84982;SDS011;75295;45.426;9.696;2024-01-10T01:54:17;12.88;;;7.70;;
84982;SDS011;75295;45.426;9.696;2024-01-10T01:56:49;13.68;;;8.13;;
84982;SDS011;75295;45.426;9.696;2024-01-10T01:59:44;14.25;;;7.82;;
84982;SDS011;75295;45.426;9.696;2024-01-10T02:05:02;14.57;;;8.20;;
84982;SDS011;75295;45.426;9.696;2024-01-10T02:07:48;13.30;;;7.78;;
84982;SDS011;75295;45.426;9.696;2024-01-10T02:10:16;14.10;;;8.52;;
84982;SDS011;75295;45.426;9.696;2024-01-10T02:12:43;14.02;;;9.00;;
84982;SDS011;75295;45.426;9.696;2024-01-10T02:15:11;13.98;;;8.80;;
84982;SDS011;75295;45.426;9.696;2024-01-10T02:17:46;16.42;;;9.30;;
84982;SDS011;75295;45.426;9.696;2024-01-10T02:20:17;13.30;;;8.60;;
84982;SDS011;75295;45.426;9.696;2024-01-10T02:22:49;12.95;;;8.25;;
84982;SDS011;75295;45.426;9.696;2024-01-10T02:25:19;13.02;;;7.68;;
84982;SDS011;75295;45.426;9.696;2024-01-10T02:27:48;13.23;;;8.02;;
84982;SDS011;75295;45.426;9.696;2024-01-10T02:30:15;15.75;;;8.68;;
84982;SDS011;75295;45.426;9.696;2024-01-10T02:32:52;15.65;;;8.07;;
84982;SDS011;75295;45.426;9.696;2024-01-10T02:35:19;21.33;;;10.95;;
84982;SDS011;75295;45.426;9.696;2024-01-10T02:37:50;14.57;;;9.00;;
84982;SDS011;75295;45.426;9.696;2024-01-10T02:40:23;14.05;;;7.68;;
84982;SDS011;75295;45.426;9.696;2024-01-10T02:42:50;15.82;;;9.10;;
84982;SDS011;75295;45.426;9.696;2024-01-10T02:45:17;11.00;;;7.95;;
84982;SDS011;75295;45.426;9.696;2024-01-10T02:47:44;13.60;;;8.35;;
84982;SDS011;75295;45.426;9.696;2024-01-10T02:50:13;16.42;;;9.05;;
84982;SDS011;75295;45.426;9.696;2024-01-10T02:52:42;15.00;;;9.00;;
84982;SDS011;75295;45.426;9.696;2024-01-10T02:55:12;12.13;;;8.00;;
84982;SDS011;75295;45.426;9.696;2024-01-10T02:57:38;15.77;;;9.20;;
84982;SDS011;75295;45.426;9.696;2024-01-10T03:00:06;14.25;;;9.48;;
84982;SDS011;75295;45.426;9.696;2024-01-10T03:02:36;17.45;;;9.85;;
84982;SDS011;75295;45.426;9.696;2024-01-10T03:05:02;15.77;;;9.60;;
84982;SDS011;75295;45.426;9.696;2024-01-10T03:07:30;13.27;;;8.57;;
84982;SDS011;75295;45.426;9.696;2024-01-10T03:09:57;15.60;;;9.15;;
84982;SDS011;75295;45.426;9.696;2024-01-10T03:12:23;12.50;;;8.35;;
84982;SDS011;75295;45.426;9.696;2024-01-10T03:14:50;13.82;;;8.60;;
84982;SDS011;75295;45.426;9.696;2024-01-10T03:17:17;12.18;;;8.70;;
84982;SDS011;75295;45.426;9.696;2024-01-10T03:19:44;16.73;;;9.05;;
84982;SDS011;75295;45.426;9.696;2024-01-10T03:22:11;15.65;;;8.93;;
84982;SDS011;75295;45.426;9.696;2024-01-10T03:24:40;13.40;;;9.10;;
84982;SDS011;75295;45.426;9.696;2024-01-10T03:27:07;13.68;;;8.63;;
84982;SDS011;75295;45.426;9.696;2024-01-10T03:29:34;12.88;;;8.98;;
84982;SDS011;75295;45.426;9.696;2024-01-10T03:32:01;14.02;;;8.98;;
84982;SDS011;75295;45.426;9.696;2024-01-10T03:34:28;13.25;;;9.05;;
84982;SDS011;75295;45.426;9.696;2024-01-10T03:36:57;14.52;;;9.15;;
84982;SDS011;75295;45.426;9.696;2024-01-10T03:39:24;17.13;;;10.38;;
84982;SDS011;75295;45.426;9.696;2024-01-10T03:41:51;14.02;;;9.48;;
84982;SDS011;75295;45.426;9.696;2024-01-10T03:44:18;15.30;;;9.82;;
84982;SDS011;75295;45.426;9.696;2024-01-10T03:46:44;15.25;;;8.75;;
84982;SDS011;75295;45.426;9.696;2024-01-10T03:49:11;17.13;;;10.25;;
84982;SDS011;75295;45.426;9.696;2024-01-10T03:51:45;18.42;;;10.18;;
84982;SDS011;75295;45.426;9.696;2024-01-10T03:54:12;15.10;;;9.60;;
84982;SDS011;75295;45.426;9.696;2024-01-10T03:56:39;14.23;;;9.80;;
84982;SDS011;75295;45.426;9.696;2024-01-10T03:59:06;15.80;;;8.85;;
84982;SDS011;75295;45.426;9.696;2024-01-10T04:01:33;14.98;;;9.60;;
84982;SDS011;75295;45.426;9.696;2024-01-10T04:03:59;13.68;;;9.20;;
84982;SDS011;75295;45.426;9.696;2024-01-10T04:06:28;15.20;;;9.18;;
84982;SDS011;75295;45.426;9.696;2024-01-10T04:08:55;15.10;;;8.95;;
84982;SDS011;75295;45.426;9.696;2024-01-10T04:11:22;14.32;;;8.90;;
84982;SDS011;75295;45.426;9.696;2024-01-10T04:13:49;16.55;;;9.65;;
84982;SDS011;75295;45.426;9.696;2024-01-10T04:16:16;16.05;;;9.45;;
84982;SDS011;75295;45.426;9.696;2024-01-10T04:18:43;18.30;;;10.85;;
84982;SDS011;75295;45.426;9.696;2024-01-10T04:21:10;18.70;;;10.80;;
84982;SDS011;75295;45.426;9.696;2024-01-10T04:23:37;23.85;;;11.55;;
84982;SDS011;75295;45.426;9.696;2024-01-10T04:26:05;17.00;;;9.65;;
84982;SDS011;75295;45.426;9.696;2024-01-10T04:28:31;16.48;;;8.65;;
84982;SDS011;75295;45.426;9.696;2024-01-10T04:30:58;16.00;;;9.57;;
84982;SDS011;75295;45.426;9.696;2024-01-10T04:33:25;14.75;;;9.77;;
84982;SDS011;75295;45.426;9.696;2024-01-10T04:35:52;16.65;;;9.68;;
84982;SDS011;75295;45.426;9.696;2024-01-10T04:38:20;14.75;;;8.60;;
84982;SDS011;75295;45.426;9.696;2024-01-10T04:40:47;14.63;;;9.73;;
84982;SDS011;75295;45.426;9.696;2024-01-10T04:43:13;19.45;;;9.95;;
84982;SDS011;75295;45.426;9.696;2024-01-10T04:45:40;17.63;;;10.05;;
84982;SDS011;75295;45.426;9.696;2024-01-10T04:48:07;16.10;;;9.88;;
84982;SDS011;75295;45.426;9.696;2024-01-10T04:50:34;15.80;;;9.48;;
84982;SDS011;75295;45.426;9.696;2024-01-10T04:53:02;16.30;;;10.15;;
84982;SDS011;75295;45.426;9.696;2024-01-10T04:55:30;15.52;;;10.00;;
84982;SDS011;75295;45.426;9.696;2024-01-10T04:57:57;14.98;;;9.30;;
84982;SDS011;75295;45.426;9.696;2024-01-10T05:00:26;17.15;;;11.27;;
84982;SDS011;75295;45.426;9.696;2024-01-10T05:02:54;16.15;;;9.55;;
84982;SDS011;75295;45.426;9.696;2024-01-10T05:05:23;18.88;;;10.82;;
84982;SDS011;75295;45.426;9.696;2024-01-10T05:07:50;16.27;;;10.38;;
84982;SDS011;75295;45.426;9.696;2024-01-10T05:10:19;14.43;;;8.77;;
84982;SDS011;75295;45.426;9.696;2024-01-10T05:12:46;15.95;;;10.00;;
84982;SDS011;75295;45.426;9.696;2024-01-10T05:15:13;15.93;;;9.65;;
84982;SDS011;75295;45.426;9.696;2024-01-10T05:17:42;16.67;;;11.88;;
84982;SDS011;75295;45.426;9.696;2024-01-10T05:20:09;16.20;;;9.82;;
84982;SDS011;75295;45.426;9.696;2024-01-10T05:22:36;18.98;;;10.40;;
84982;SDS011;75295;45.426;9.696;2024-01-10T05:25:03;18.98;;;10.43;;
84982;SDS011;75295;45.426;9.696;2024-01-10T05:27:31;16.10;;;10.15;;
84982;SDS011;75295;45.426;9.696;2024-01-10T05:29:58;17.25;;;9.98;;
84982;SDS011;75295;45.426;9.696;2024-01-10T05:32:26;19.15;;;10.82;;
84982;SDS011;75295;45.426;9.696;2024-01-10T05:34:56;15.55;;;9.52;;
84982;SDS011;75295;45.426;9.696;2024-01-10T05:37:22;16.48;;;10.20;;
84982;SDS011;75295;45.426;9.696;2024-01-10T05:39:50;19.38;;;10.15;;
84982;SDS011;75295;45.426;9.696;2024-01-10T05:42:16;17.92;;;11.15;;
84982;SDS011;75295;45.426;9.696;2024-01-10T05:44:45;18.13;;;10.75;;
84982;SDS011;75295;45.426;9.696;2024-01-10T05:47:14;17.15;;;9.80;;
84982;SDS011;75295;45.426;9.696;2024-01-10T05:49:41;14.60;;;9.65;;
84982;SDS011;75295;45.426;9.696;2024-01-10T05:52:10;18.05;;;10.00;;
84982;SDS011;75295;45.426;9.696;2024-01-10T05:54:38;17.23;;;10.73;;
84982;SDS011;75295;45.426;9.696;2024-01-10T05:57:05;17.55;;;11.25;;
84982;SDS011;75295;45.426;9.696;2024-01-10T05:59:32;15.93;;;10.00;;
84982;SDS011;75295;45.426;9.696;2024-01-10T06:01:59;14.43;;;10.25;;
84982;SDS011;75295;45.426;9.696;2024-01-10T06:04:25;16.50;;;9.95;;
84982;SDS011;75295;45.426;9.696;2024-01-10T06:07:00;14.60;;;9.30;;
84982;SDS011;75295;45.426;9.696;2024-01-10T06:09:27;16.75;;;9.20;;
84982;SDS011;75295;45.426;9.696;2024-01-10T06:11:54;17.00;;;10.00;;
84982;SDS011;75295;45.426;9.696;2024-01-10T06:14:26;18.15;;;10.10;;
84982;SDS011;75295;45.426;9.696;2024-01-10T06:17:03;17.33;;;9.50;;
84982;SDS011;75295;45.426;9.696;2024-01-10T06:19:30;17.90;;;10.10;;
84982;SDS011;75295;45.426;9.696;2024-01-10T06:21:57;18.48;;;10.45;;
84982;SDS011;75295;45.426;9.696;2024-01-10T06:24:28;16.40;;;9.35;;
84982;SDS011;75295;45.426;9.696;2024-01-10T06:27:09;17.88;;;9.75;;
84982;SDS011;75295;45.426;9.696;2024-01-10T06:29:40;16.50;;;9.70;;
84982;SDS011;75295;45.426;9.696;2024-01-10T06:32:10;17.17;;;9.80;;
84982;SDS011;75295;45.426;9.696;2024-01-10T06:34:41;22.70;;;9.93;;
84982;SDS011;75295;45.426;9.696;2024-01-10T06:37:08;15.70;;;9.60;;
84982;SDS011;75295;45.426;9.696;2024-01-10T06:39:35;17.15;;;10.85;;
84982;SDS011;75295;45.426;9.696;2024-01-10T06:42:02;17.02;;;10.13;;
84982;SDS011;75295;45.426;9.696;2024-01-10T06:44:32;15.68;;;10.13;;
84982;SDS011;75295;45.426;9.696;2024-01-10T06:47:02;17.83;;;10.60;;
84982;SDS011;75295;45.426;9.696;2024-01-10T06:49:29;18.92;;;10.15;;
84982;SDS011;75295;45.426;9.696;2024-01-10T06:52:04;18.08;;;10.57;;
84982;SDS011;75295;45.426;9.696;2024-01-10T06:54:33;24.40;;;11.13;;
84982;SDS011;75295;45.426;9.696;2024-01-10T06:57:02;16.40;;;10.60;;
84982;SDS011;75295;45.426;9.696;2024-01-10T06:59:39;18.02;;;10.77;;
84982;SDS011;75295;45.426;9.696;2024-01-10T07:02:07;17.08;;;10.30;;
84982;SDS011;75295;45.426;9.696;2024-01-10T07:04:36;18.38;;;11.68;;
84982;SDS011;75295;45.426;9.696;2024-01-10T07:07:05;17.73;;;10.45;;
84982;SDS011;75295;45.426;9.696;2024-01-10T07:09:34;18.42;;;10.15;;
84982;SDS011;75295;45.426;9.696;2024-01-10T07:12:03;19.85;;;11.07;;
84982;SDS011;75295;45.426;9.696;2024-01-10T07:14:30;19.15;;;10.70;;
84982;SDS011;75295;45.426;9.696;2024-01-10T07:16:56;17.40;;;11.02;;
84982;SDS011;75295;45.426;9.696;2024-01-10T07:19:24;17.85;;;10.98;;
84982;SDS011;75295;45.426;9.696;2024-01-10T07:21:51;21.67;;;12.85;;
84982;SDS011;75295;45.426;9.696;2024-01-10T07:24:20;17.17;;;10.50;;
84982;SDS011;75295;45.426;9.696;2024-01-10T07:26:47;19.23;;;11.00;;
84982;SDS011;75295;45.426;9.696;2024-01-10T07:29:13;17.70;;;10.35;;
84982;SDS011;75295;45.426;9.696;2024-01-10T07:31:40;17.70;;;11.48;;
84982;SDS011;75295;45.426;9.696;2024-01-10T07:34:07;21.95;;;10.35;;
84982;SDS011;75295;45.426;9.696;2024-01-10T07:36:40;20.33;;;11.10;;
84982;SDS011;75295;45.426;9.696;2024-01-10T07:39:08;17.73;;;10.95;;
84982;SDS011;75295;45.426;9.696;2024-01-10T07:41:35;19.40;;;11.25;;
84982;SDS011;75295;45.426;9.696;2024-01-10T07:44:02;18.38;;;9.95;;
84982;SDS011;75295;45.426;9.696;2024-01-10T07:46:30;16.80;;;10.55;;
84982;SDS011;75295;45.426;9.696;2024-01-10T07:48:56;17.35;;;10.93;;
84982;SDS011;75295;45.426;9.696;2024-01-10T07:51:23;20.52;;;10.30;;
84982;SDS011;75295;45.426;9.696;2024-01-10T07:53:50;17.67;;;10.55;;
84982;SDS011;75295;45.426;9.696;2024-01-10T07:56:17;15.02;;;9.65;;
84982;SDS011;75295;45.426;9.696;2024-01-10T07:58:45;27.42;;;11.25;;
84982;SDS011;75295;45.426;9.696;2024-01-10T08:01:12;20.88;;;12.02;;
84982;SDS011;75295;45.426;9.696;2024-01-10T08:03:39;22.95;;;11.68;;
84982;SDS011;75295;45.426;9.696;2024-01-10T08:06:06;25.27;;;11.90;;
84982;SDS011;75295;45.426;9.696;2024-01-10T08:08:40;25.73;;;11.57;;
84982;SDS011;75295;45.426;9.696;2024-01-10T08:11:07;23.25;;;11.48;;
84982;SDS011;75295;45.426;9.696;2024-01-10T08:13:34;26.05;;;11.65;;
84982;SDS011;75295;45.426;9.696;2024-01-10T08:16:00;20.38;;;12.45;;
84982;SDS011;75295;45.426;9.696;2024-01-10T08:18:27;21.27;;;11.27;;
84982;SDS011;75295;45.426;9.696;2024-01-10T08:20:54;24.55;;;13.65;;
84982;SDS011;75295;45.426;9.696;2024-01-10T08:23:21;16.90;;;10.52;;
84982;SDS011;75295;45.426;9.696;2024-01-10T08:25:47;20.50;;;10.32;;
84982;SDS011;75295;45.426;9.696;2024-01-10T08:28:14;16.83;;;9.77;;
84982;SDS011;75295;45.426;9.696;2024-01-10T08:30:42;18.05;;;9.57;;
84982;SDS011;75295;45.426;9.696;2024-01-10T08:33:09;14.73;;;10.77;;
84982;SDS011;75295;45.426;9.696;2024-01-10T08:35:35;17.50;;;10.90;;
84982;SDS011;75295;45.426;9.696;2024-01-10T08:38:02;17.23;;;10.05;;
84982;SDS011;75295;45.426;9.696;2024-01-10T08:40:31;13.40;;;8.98;;
84982;SDS011;75295;45.426;9.696;2024-01-10T08:42:58;18.52;;;10.10;;
84982;SDS011;75295;45.426;9.696;2024-01-10T08:45:24;16.88;;;10.50;;
84982;SDS011;75295;45.426;9.696;2024-01-10T08:47:52;16.45;;;10.00;;
84982;SDS011;75295;45.426;9.696;2024-01-10T08:50:19;18.25;;;10.45;;
84982;SDS011;75295;45.426;9.696;2024-01-10T08:52:46;14.65;;;9.48;;
84982;SDS011;75295;45.426;9.696;2024-01-10T08:55:13;15.48;;;9.18;;
84982;SDS011;75295;45.426;9.696;2024-01-10T08:57:40;14.85;;;8.95;;
84982;SDS011;75295;45.426;9.696;2024-01-10T09:00:07;16.67;;;10.60;;
84982;SDS011;75295;45.426;9.696;2024-01-10T09:02:38;16.73;;;9.02;;
84982;SDS011;75295;45.426;9.696;2024-01-10T09:05:05;16.63;;;10.13;;
84982;SDS011;75295;45.426;9.696;2024-01-10T09:07:36;14.68;;;9.85;;
84982;SDS011;75295;45.426;9.696;2024-01-10T09:10:04;26.65;;;10.15;;
84982;SDS011;75295;45.426;9.696;2024-01-10T09:12:31;16.85;;;9.80;;
84982;SDS011;75295;45.426;9.696;2024-01-10T09:14:59;18.85;;;10.18;;
84982;SDS011;75295;45.426;9.696;2024-01-10T09:17:26;17.10;;;9.80;;
84982;SDS011;75295;45.426;9.696;2024-01-10T09:19:54;13.40;;;8.95;;
84982;SDS011;75295;45.426;9.696;2024-01-10T09:22:20;18.80;;;10.75;;
84982;SDS011;75295;45.426;9.696;2024-01-10T09:24:47;16.75;;;10.30;;
84982;SDS011;75295;45.426;9.696;2024-01-10T09:27:14;15.82;;;10.20;;
84982;SDS011;75295;45.426;9.696;2024-01-10T09:29:41;16.20;;;9.95;;
84982;SDS011;75295;45.426;9.696;2024-01-10T09:32:08;16.50;;;9.07;;
84982;SDS011;75295;45.426;9.696;2024-01-10T09:34:35;18.48;;;10.07;;
84982;SDS011;75295;45.426;9.696;2024-01-10T09:37:02;15.20;;;8.88;;
84982;SDS011;75295;45.426;9.696;2024-01-10T09:39:30;14.40;;;9.88;;
84982;SDS011;75295;45.426;9.696;2024-01-10T09:41:57;16.02;;;9.00;;
84982;SDS011;75295;45.426;9.696;2024-01-10T09:44:25;16.88;;;10.52;;
84982;SDS011;75295;45.426;9.696;2024-01-10T09:46:52;16.52;;;9.88;;
84982;SDS011;75295;45.426;9.696;2024-01-10T09:49:20;19.25;;;9.43;;
84982;SDS011;75295;45.426;9.696;2024-01-10T09:51:48;14.35;;;8.90;;
84982;SDS011;75295;45.426;9.696;2024-01-10T09:54:15;17.25;;;9.85;;
84982;SDS011;75295;45.426;9.696;2024-01-10T09:56:42;14.63;;;9.40;;
84982;SDS011;75295;45.426;9.696;2024-01-10T09:59:10;16.40;;;9.55;;
84982;SDS011;75295;45.426;9.696;2024-01-10T10:01:38;14.52;;;9.55;;
84982;SDS011;75295;45.426;9.696;2024-01-10T10:04:07;18.08;;;9.30;;
84982;SDS011;75295;45.426;9.696;2024-01-10T10:06:40;16.23;;;10.23;;
84982;SDS011;75295;45.426;9.696;2024-01-10T10:09:08;14.85;;;8.90;;
84982;SDS011;75295;45.426;9.696;2024-01-10T10:11:36;14.48;;;9.13;;
84982;SDS011;75295;45.426;9.696;2024-01-10T10:14:15;17.38;;;10.40;;
84982;SDS011;75295;45.426;9.696;2024-01-10T10:16:44;15.38;;;8.95;;
84982;SDS011;75295;45.426;9.696;2024-01-10T10:19:10;15.23;;;9.18;;
84982;SDS011;75295;45.426;9.696;2024-01-10T10:21:38;17.30;;;10.20;;
84982;SDS011;75295;45.426;9.696;2024-01-10T10:24:05;14.65;;;10.05;;
84982;SDS011;75295;45.426;9.696;2024-01-10T10:26:35;15.10;;;9.02;;
84982;SDS011;75295;45.426;9.696;2024-01-10T10:29:02;15.25;;;9.50;;
84982;SDS011;75295;45.426;9.696;2024-01-10T10:31:29;14.82;;;9.57;;
84982;SDS011;75295;45.426;9.696;2024-01-10T10:33:59;12.82;;;8.95;;
84982;SDS011;75295;45.426;9.696;2024-01-10T10:36:31;17.02;;;10.50;;
84982;SDS011;75295;45.426;9.696;2024-01-10T10:39:01;16.65;;;10.25;;
84982;SDS011;75295;45.426;9.696;2024-01-10T10:41:29;14.65;;;9.18;;
84982;SDS011;75295;45.426;9.696;2024-01-10T10:43:58;15.90;;;10.13;;
84982;SDS011;75295;45.426;9.696;2024-01-10T10:46:26;14.18;;;8.90;;
84982;SDS011;75295;45.426;9.696;2024-01-10T10:48:54;14.95;;;10.30;;
84982;SDS011;75295;45.426;9.696;2024-01-10T10:51:32;14.77;;;9.80;;
84982;SDS011;75295;45.426;9.696;2024-01-10T10:54:00;14.90;;;9.40;;
84982;SDS011;75295;45.426;9.696;2024-01-10T10:56:31;14.45;;;9.57;;
84982;SDS011;75295;45.426;9.696;2024-01-10T10:59:02;15.27;;;10.15;;
84982;SDS011;75295;45.426;9.696;2024-01-10T11:01:31;16.50;;;10.75;;
84982;SDS011;75295;45.426;9.696;2024-01-10T11:04:00;15.57;;;10.10;;
84982;SDS011;75295;45.426;9.696;2024-01-10T11:06:27;17.83;;;10.98;;
84982;SDS011;75295;45.426;9.696;2024-01-10T11:09:00;13.80;;;8.98;;
84982;SDS011;75295;45.426;9.696;2024-01-10T11:15:14;16.02;;;9.77;;
84982;SDS011;75295;45.426;9.696;2024-01-10T11:23:54;16.48;;;9.55;;
84982;SDS011;75295;45.426;9.696;2024-01-10T11:26:24;13.52;;;8.88;;
84982;SDS011;75295;45.426;9.696;2024-01-10T11:28:52;14.45;;;9.30;;
84982;SDS011;75295;45.426;9.696;2024-01-10T11:31:29;15.27;;;9.02;;
84982;SDS011;75295;45.426;9.696;2024-01-10T11:33:58;12.85;;;8.30;;
84982;SDS011;75295;45.426;9.696;2024-01-10T11:36:27;13.00;;;8.05;;
84982;SDS011;75295;45.426;9.696;2024-01-10T11:38:57;17.55;;;10.35;;
84982;SDS011;75295;45.426;9.696;2024-01-10T11:46:37;16.23;;;10.00;;
84982;SDS011;75295;45.426;9.696;2024-01-10T11:49:09;13.98;;;8.90;;
84982;SDS011;75295;45.426;9.696;2024-01-10T11:51:44;15.00;;;9.80;;
84982;SDS011;75295;45.426;9.696;2024-01-10T11:54:12;14.90;;;10.15;;
84982;SDS011;75295;45.426;9.696;2024-01-10T11:57:11;16.40;;;10.65;;
84982;SDS011;75295;45.426;9.696;2024-01-10T11:59:56;16.98;;;10.20;;
84982;SDS011;75295;45.426;9.696;2024-01-10T12:02:31;15.35;;;9.60;;
84982;SDS011;75295;45.426;9.696;2024-01-10T12:04:58;15.98;;;10.13;;
84982;SDS011;75295;45.426;9.696;2024-01-10T12:07:25;14.93;;;9.60;;
84982;SDS011;75295;45.426;9.696;2024-01-10T12:09:51;17.17;;;10.10;;
84982;SDS011;75295;45.426;9.696;2024-01-10T12:12:18;12.73;;;8.85;;
84982;SDS011;75295;45.426;9.696;2024-01-10T12:14:45;14.93;;;9.23;;
84982;SDS011;75295;45.426;9.696;2024-01-10T12:17:12;16.55;;;9.43;;
84982;SDS011;75295;45.426;9.696;2024-01-10T12:19:39;15.93;;;10.98;;
84982;SDS011;75295;45.426;9.696;2024-01-10T12:22:10;18.88;;;10.13;;
84982;SDS011;75295;45.426;9.696;2024-01-10T12:24:43;14.32;;;9.48;;
84982;SDS011;75295;45.426;9.696;2024-01-10T12:27:16;14.82;;;9.15;;
84982;SDS011;75295;45.426;9.696;2024-01-10T12:29:47;15.02;;;9.27;;
84982;SDS011;75295;45.426;9.696;2024-01-10T12:32:17;14.75;;;9.70;;
84982;SDS011;75295;45.426;9.696;2024-01-10T12:34:48;13.45;;;8.82;;
84982;SDS011;75295;45.426;9.696;2024-01-10T12:37:15;12.70;;;8.30;;
84982;SDS011;75295;45.426;9.696;2024-01-10T12:39:42;14.90;;;9.13;;
84982;SDS011;75295;45.426;9.696;2024-01-10T12:42:09;14.77;;;9.20;;
84982;SDS011;75295;45.426;9.696;2024-01-10T12:44:36;14.35;;;9.65;;
84982;SDS011;75295;45.426;9.696;2024-01-10T12:47:03;15.85;;;10.85;;
84982;SDS011;75295;45.426;9.696;2024-01-10T12:49:29;16.42;;;10.38;;
84982;SDS011;75295;45.426;9.696;2024-01-10T12:51:57;14.45;;;9.82;;
84982;SDS011;75295;45.426;9.696;2024-01-10T12:54:23;14.95;;;9.15;;
84982;SDS011;75295;45.426;9.696;2024-01-10T12:56:51;15.18;;;9.77;;
84982;SDS011;75295;45.426;9.696;2024-01-10T12:59:18;16.17;;;9.80;;
84982;SDS011;75295;45.426;9.696;2024-01-10T13:01:45;14.23;;;8.45;;
84982;SDS011;75295;45.426;9.696;2024-01-10T13:04:12;16.48;;;10.20;;
84982;SDS011;75295;45.426;9.696;2024-01-10T13:06:39;17.38;;;10.02;;
84982;SDS011;75295;45.426;9.696;2024-01-10T13:09:09;14.80;;;8.63;;
84982;SDS011;75295;45.426;9.696;2024-01-10T13:11:36;15.52;;;10.13;;
84982;SDS011;75295;45.426;9.696;2024-01-10T13:14:03;15.27;;;9.15;;
84982;SDS011;75295;45.426;9.696;2024-01-10T13:16:31;16.05;;;8.88;;
84982;SDS011;75295;45.426;9.696;2024-01-10T13:18:59;18.55;;;9.02;;
84982;SDS011;75295;45.426;9.696;2024-01-10T13:21:25;14.40;;;9.38;;
84982;SDS011;75295;45.426;9.696;2024-01-10T13:23:52;12.95;;;8.63;;
84982;SDS011;75295;45.426;9.696;2024-01-10T13:26:20;14.80;;;8.82;;
84982;SDS011;75295;45.426;9.696;2024-01-10T13:28:46;19.98;;;9.85;;
84982;SDS011;75295;45.426;9.696;2024-01-10T13:31:14;16.40;;;8.93;;
84982;SDS011;75295;45.426;9.696;2024-01-10T13:33:42;17.92;;;8.80;;
84982;SDS011;75295;45.426;9.696;2024-01-10T13:36:08;14.18;;;8.20;;
84982;SDS011;75295;45.426;9.696;2024-01-10T13:38:35;16.33;;;9.10;;
84982;SDS011;75295;45.426;9.696;2024-01-10T13:41:02;14.50;;;8.45;;
84982;SDS011;75295;45.426;9.696;2024-01-10T13:43:31;13.90;;;8.98;;
84982;SDS011;75295;45.426;9.696;2024-01-10T13:45:59;13.05;;;8.45;;
84982;SDS011;75295;45.426;9.696;2024-01-10T13:48:27;14.60;;;8.15;;
84982;SDS011;75295;45.426;9.696;2024-01-10T13:50:55;12.75;;;8.32;;
84982;SDS011;75295;45.426;9.696;2024-01-10T13:53:24;14.57;;;7.78;;
84982;SDS011;75295;45.426;9.696;2024-01-10T13:55:50;12.73;;;8.30;;
84982;SDS011;75295;45.426;9.696;2024-01-10T13:58:17;17.20;;;9.15;;
84982;SDS011;75295;45.426;9.696;2024-01-10T14:00:44;13.07;;;8.43;;
84982;SDS011;75295;45.426;9.696;2024-01-10T14:03:12;13.07;;;8.40;;
84982;SDS011;75295;45.426;9.696;2024-01-10T14:05:40;14.98;;;9.23;;
84982;SDS011;75295;45.426;9.696;2024-01-10T14:08:06;15.75;;;8.88;;
84982;SDS011;75295;45.426;9.696;2024-01-10T14:10:34;13.43;;;8.38;;
84982;SDS011;75295;45.426;9.696;2024-01-10T14:13:01;15.40;;;9.70;;
84982;SDS011;75295;45.426;9.696;2024-01-10T14:15:30;12.98;;;8.88;;
84982;SDS011;75295;45.426;9.696;2024-01-10T14:17:57;17.27;;;9.70;;
84982;SDS011;75295;45.426;9.696;2024-01-10T14:20:24;14.15;;;8.93;;
84982;SDS011;75295;45.426;9.696;2024-01-10T14:22:52;17.20;;;8.88;;
84982;SDS011;75295;45.426;9.696;2024-01-10T14:25:18;16.77;;;9.10;;
84982;SDS011;75295;45.426;9.696;2024-01-10T14:27:46;14.35;;;9.35;;
84982;SDS011;75295;45.426;9.696;2024-01-10T14:30:13;18.00;;;9.68;;
84982;SDS011;75295;45.426;9.696;2024-01-10T14:32:41;18.33;;;10.65;;
84982;SDS011;75295;45.426;9.696;2024-01-10T14:35:08;15.32;;;10.02;;
84982;SDS011;75295;45.426;9.696;2024-01-10T14:37:36;17.33;;;10.43;;
84982;SDS011;75295;45.426;9.696;2024-01-10T14:40:03;13.05;;;9.27;;
84982;SDS011;75295;45.426;9.696;2024-01-10T14:42:32;16.95;;;9.93;;
84982;SDS011;75295;45.426;9.696;2024-01-10T14:44:59;17.05;;;10.30;;
84982;SDS011;75295;45.426;9.696;2024-01-10T14:47:27;17.77;;;11.32;;
84982;SDS011;75295;45.426;9.696;2024-01-10T14:49:54;18.42;;;11.50;;
84982;SDS011;75295;45.426;9.696;2024-01-10T14:52:24;18.65;;;10.98;;
84982;SDS011;75295;45.426;9.696;2024-01-10T14:54:52;17.52;;;10.02;;
84982;SDS011;75295;45.426;9.696;2024-01-10T14:57:19;19.10;;;10.20;;
84982;SDS011;75295;45.426;9.696;2024-01-10T14:59:46;16.23;;;10.00;;
84982;SDS011;75295;45.426;9.696;2024-01-10T15:02:14;15.55;;;10.57;;
84982;SDS011;75295;45.426;9.696;2024-01-10T15:04:44;17.33;;;11.50;;
84982;SDS011;75295;45.426;9.696;2024-01-10T15:07:11;17.25;;;9.90;;
84982;SDS011;75295;45.426;9.696;2024-01-10T15:09:38;16.23;;;10.65;;
84982;SDS011;75295;45.426;9.696;2024-01-10T15:12:05;16.40;;;11.05;;